Time;durP1;ratioP1;P1;durP2;ratioP2;P2;SDS_P1;SDS_P2;PMS_P1;PMS_P2;Temp;Humidity;BMP_temperature;BMP_pressure;BME280_temperature;BME280_humidity;BME280_pressure;Samples;Min_cycle;Max_cycle;Signal;HPM_P1;HPM_P2
2022/10/05 00:01:16;;;;;;;19.40;7.10;;;;;;;8.75;70.74;99755.05;106057;1274;99287;-66
2022/10/05 00:03:43;;;;;;;19.90;6.40;;;;;;;8.75;70.74;99752.56;105954;1274;107759;-65
2022/10/05 00:06:12;;;;;;;15.00;6.00;;;;;;;8.74;70.71;99757.54;105930;1274;99236;-66
2022/10/05 00:08:42;;;;;;;18.90;6.80;;;;;;;8.73;70.67;99759.91;106003;1276;99233;-65
2022/10/05 00:11:14;;;;;;;21.70;7.60;;;;;;;8.72;70.69;99761.92;105977;1276;113062;-65
2022/10/05 00:13:42;;;;;;;18.60;6.30;;;;;;;8.70;70.69;99764.48;105976;1274;96571;-66
2022/10/05 00:16:10;;;;;;;18.20;6.20;;;;;;;8.68;70.76;99762.66;105975;1274;107339;-65
2022/10/05 00:18:45;;;;;;;20.00;7.10;;;;;;;8.68;70.79;99768.34;106101;1274;99246;-63
2022/10/05 00:21:27;;;;;;;20.00;6.40;;;;;;;8.68;70.75;99775.22;106106;1274;99201;-65
2022/10/05 00:23:59;;;;;;;18.40;6.80;;;;;;;8.68;70.80;99778.41;106015;1274;112755;-65
2022/10/05 00:26:32;;;;;;;18.40;6.40;;;;;;;8.67;70.84;99779.88;106113;1276;96535;-66
2022/10/05 00:29:12;;;;;;;15.80;6.40;;;;;;;8.65;70.85;99785.46;106039;1274;108366;-65
2022/10/05 00:31:40;;;;;;;18.50;7.00;;;;;;;8.61;70.79;99781.95;106011;1274;99211;-65
2022/10/05 00:34:09;;;;;;;20.20;6.60;;;;;;;8.58;70.88;99778.38;106104;1274;96625;-65
2022/10/05 00:36:41;;;;;;;17.90;6.50;;;;;;;8.56;70.86;99774.26;106003;1276;113455;-65
2022/10/05 00:39:11;;;;;;;18.20;7.70;;;;;;;8.56;70.96;99767.55;106069;1275;99230;-65
2022/10/05 00:42:27;;;;;;;18.50;7.20;;;;;;;8.55;70.86;99773.25;106041;1275;108739;-65
2022/10/05 00:45:04;;;;;;;19.20;7.20;;;;;;;8.53;70.96;99776.35;105475;1282;99217;-66
2022/10/05 00:47:43;;;;;;;23.50;7.20;;;;;;;8.51;70.95;99780.54;106060;1275;97937;-66
2022/10/05 00:50:26;;;;;;;19.50;7.30;;;;;;;8.48;70.95;99780.31;106064;1274;113287;-65
2022/10/05 00:53:16;;;;;;;19.20;7.20;;;;;;;8.45;71.08;99775.14;105955;1274;99288;-66
2022/10/05 00:56:12;;;;;;;18.70;7.10;;;;;;;8.43;71.08;99769.06;106028;1274;108314;-65
2022/10/05 00:59:15;;;;;;;18.50;6.90;;;;;;;8.41;70.97;99768.10;105957;1274;98338;-64
2022/10/05 01:01:57;;;;;;;17.20;6.80;;;;;;;8.38;71.06;99766.15;106021;1274;99232;-69
2022/10/05 01:04:40;;;;;;;18.50;7.60;;;;;;;8.36;71.11;99762.55;105927;1274;113310;-66
2022/10/05 01:07:34;;;;;;;20.60;8.00;;;;;;;8.35;71.19;99767.37;106175;1274;99358;-66
2022/10/05 01:10:19;;;;;;;22.70;7.50;;;;;;;8.33;71.07;99764.30;106011;1274;108475;-63
2022/10/05 01:13:37;;;;;;;22.60;7.80;;;;;;;8.32;71.17;99765.58;105964;1274;96633;-66
2022/10/05 01:16:29;;;;;;;22.90;7.90;;;;;;;8.31;71.16;99770.42;106019;1274;96661;-65
2022/10/05 01:19:36;;;;;;;20.10;7.60;;;;;;;8.30;71.17;99774.84;106077;1274;113532;-65
2022/10/05 01:22:29;;;;;;;19.60;7.80;;;;;;;8.30;71.27;99777.15;105958;1274;99236;-64
2022/10/05 01:25:26;;;;;;;21.60;8.50;;;;;;;8.30;71.18;99780.54;106044;1274;108407;-66
2022/10/05 01:28:03;;;;;;;21.40;8.50;;;;;;;8.29;71.32;99776.30;106016;1275;96626;-66
2022/10/05 01:31:05;;;;;;;19.80;7.50;;;;;;;8.29;71.40;99780.03;106038;1276;96660;-65
2022/10/05 01:33:53;;;;;;;20.00;7.70;;;;;;;8.29;71.38;99786.05;105995;1275;113327;-65
2022/10/05 01:36:28;;;;;;;18.10;7.50;;;;;;;8.29;71.41;99788.86;105945;1275;96600;-66
2022/10/05 01:39:18;;;;;;;21.90;7.40;;;;;;;8.30;71.37;99784.77;105938;1276;107724;-66
2022/10/05 01:42:14;;;;;;;18.80;7.20;;;;;;;8.29;71.43;99788.33;105966;1275;99261;-66
2022/10/05 01:45:10;;;;;;;22.20;7.80;;;;;;;8.29;71.47;99791.68;106120;1274;99196;-67
2022/10/05 01:47:51;;;;;;;21.30;8.40;;;;;;;8.29;71.42;99790.31;105967;1274;113273;-63
2022/10/05 01:50:29;;;;;;;22.40;7.90;;;;;;;8.28;71.39;99786.13;106086;1274;99966;-64
2022/10/05 01:53:26;;;;;;;20.50;8.60;;;;;;;8.25;71.50;99794.93;105997;1274;107952;-65
2022/10/05 01:56:11;;;;;;;22.60;8.20;;;;;;;8.24;71.59;99796.91;106070;1274;99534;-66
2022/10/05 01:59:05;;;;;;;22.60;8.00;;;;;;;8.23;71.65;99798.03;106054;1274;99232;-65
2022/10/05 02:01:43;;;;;;;22.80;8.00;;;;;;;8.21;71.54;99794.77;106072;1274;113343;-67
2022/10/05 02:04:35;;;;;;;19.40;7.50;;;;;;;8.20;71.55;99794.99;106136;1274;99119;-65
2022/10/05 02:07:35;;;;;;;20.80;7.60;;;;;;;8.20;71.59;99794.81;106069;1274;108420;-65
2022/10/05 02:10:29;;;;;;;22.40;8.20;;;;;;;8.21;71.63;99796.00;105947;1274;99265;-65
2022/10/05 02:13:04;;;;;;;19.90;8.10;;;;;;;8.23;71.67;99795.73;106041;1274;99306;-67
2022/10/05 02:15:54;;;;;;;21.70;8.80;;;;;;;8.23;71.76;99796.45;106055;1274;112713;-67
2022/10/05 02:18:29;;;;;;;20.70;8.50;;;;;;;8.23;71.72;99793.95;106013;1274;99112;-67
2022/10/05 02:21:01;;;;;;;22.40;7.80;;;;;;;8.22;71.72;99792.77;106107;1274;107772;-65
2022/10/05 02:23:37;;;;;;;20.50;7.40;;;;;;;8.20;71.66;99790.90;106055;1274;96619;-62
2022/10/05 02:26:10;;;;;;;21.20;7.80;;;;;;;8.18;71.68;99789.21;105975;1274;99223;-67
2022/10/05 02:28:56;;;;;;;24.90;9.00;;;;;;;8.19;71.76;99787.08;105992;1274;112747;-65
2022/10/05 02:31:48;;;;;;;22.00;8.00;;;;;;;8.19;71.82;99783.03;105984;1274;100123;-63
2022/10/05 02:34:42;;;;;;;19.60;8.10;;;;;;;8.17;71.71;99782.39;105998;1274;107821;-65
2022/10/05 02:37:37;;;;;;;21.70;8.80;;;;;;;8.17;71.77;99773.23;105955;1274;100030;-65
2022/10/05 02:40:24;;;;;;;22.70;7.60;;;;;;;8.17;71.72;99773.92;105930;1274;99362;-64
2022/10/05 02:43:13;;;;;;;20.20;7.70;;;;;;;8.15;71.82;99767.66;106023;1274;112771;-66
2022/10/05 02:46:18;;;;;;;18.30;6.90;;;;;;;8.15;71.86;99768.91;106089;1274;99913;-66
2022/10/05 02:48:57;;;;;;;23.80;7.70;;;;;;;8.14;71.89;99769.35;106129;1274;106696;-66
2022/10/05 02:51:42;;;;;;;20.90;7.50;;;;;;;8.13;71.86;99772.77;106067;1274;97768;-66
2022/10/05 02:54:16;;;;;;;19.80;8.30;;;;;;;8.13;71.92;99782.27;106034;1274;96639;-67
2022/10/05 02:57:06;;;;;;;24.40;8.30;;;;;;;8.13;71.91;99790.93;106024;1274;113130;-64
2022/10/05 02:59:56;;;;;;;20.70;8.70;;;;;;;8.12;71.95;99789.76;105973;1274;99263;-66
2022/10/05 03:02:50;;;;;;;22.70;7.90;;;;;;;8.11;71.91;99788.40;105939;1274;108472;-65
2022/10/05 03:05:26;;;;;;;18.80;7.50;;;;;;;8.10;71.81;99785.98;105958;1274;99340;-64
2022/10/05 03:08:06;;;;;;;18.70;7.40;;;;;;;8.09;71.89;99788.85;105998;1274;99305;-64
2022/10/05 03:10:41;;;;;;;19.60;7.80;;;;;;;8.08;71.95;99785.56;105973;1274;112675;-65
2022/10/05 03:13:28;;;;;;;20.10;8.30;;;;;;;8.06;71.93;99785.98;106007;1276;99275;-66
2022/10/05 03:16:19;;;;;;;18.30;7.50;;;;;;;8.05;71.97;99780.88;105956;1276;106576;-65
2022/10/05 03:19:19;;;;;;;19.00;7.70;;;;;;;8.04;72.04;99780.94;105975;1276;99825;-65
2022/10/05 03:22:29;;;;;;;21.60;7.80;;;;;;;8.03;72.02;99780.13;106056;1274;99295;-66
2022/10/05 03:25:18;;;;;;;19.00;6.80;;;;;;;8.02;72.05;99781.42;106062;1273;113902;-66
2022/10/05 03:28:09;;;;;;;17.60;6.90;;;;;;;8.00;71.97;99785.91;105966;1276;99249;-67
2022/10/05 03:30:51;;;;;;;16.80;7.00;;;;;;;7.99;72.02;99785.11;105991;1274;106676;-65
2022/10/05 03:33:49;;;;;;;20.50;8.00;;;;;;;7.98;71.99;99777.40;106034;1274;99343;-67
2022/10/05 03:36:35;;;;;;;19.20;7.70;;;;;;;7.96;71.93;99776.77;105832;1274;99334;-67
2022/10/05 03:39:11;;;;;;;18.20;7.30;;;;;;;7.97;72.23;99777.27;106014;1274;112752;-66
2022/10/05 03:42:07;;;;;;;17.70;6.90;;;;;;;7.96;72.08;99775.67;106040;1274;98603;-66
2022/10/05 03:45:01;;;;;;;19.80;7.20;;;;;;;7.96;72.10;99768.82;106093;1274;107879;-66
2022/10/05 03:47:33;;;;;;;18.80;7.40;;;;;;;7.95;72.02;99773.10;106066;1277;97906;-68
2022/10/05 03:50:23;;;;;;;20.60;8.20;;;;;;;7.94;71.82;99776.69;105936;1275;99228;-66
2022/10/05 03:53:04;;;;;;;20.30;7.90;;;;;;;7.91;72.03;99773.14;105915;1274;113353;-66
2022/10/05 03:55:42;;;;;;;19.80;8.10;;;;;;;7.88;71.84;99776.29;106006;1274;127786;-63
2022/10/05 03:58:55;;;;;;;21.50;8.10;;;;;;;7.84;72.17;99775.06;106009;1274;107504;-66
2022/10/05 04:01:41;;;;;;;18.90;7.80;;;;;;;7.82;72.14;99768.79;105401;1284;99379;-66
2022/10/05 04:04:24;;;;;;;20.20;7.10;;;;;;;7.81;72.11;99775.02;105372;1284;96772;-67
2022/10/05 04:06:58;;;;;;;20.00;7.40;;;;;;;7.80;72.18;99772.98;105769;1275;113360;-66
2022/10/05 04:09:34;;;;;;;18.60;7.20;;;;;;;7.80;72.06;99764.65;105963;1276;99327;-66
2022/10/05 04:12:18;;;;;;;17.80;6.90;;;;;;;7.81;72.17;99766.23;105874;1274;107832;-65
2022/10/05 04:14:56;;;;;;;20.20;7.50;;;;;;;7.82;72.21;99759.64;105950;1274;99934;-66
2022/10/05 04:17:38;;;;;;;22.30;7.40;;;;;;;7.82;72.26;99756.63;105929;1276;99287;-66
2022/10/05 04:20:17;;;;;;;19.70;7.70;;;;;;;7.83;72.31;99753.40;105911;1275;112743;-64
2022/10/05 04:23:08;;;;;;;19.40;6.90;;;;;;;7.84;72.18;99756.88;106065;1276;99341;-67
2022/10/05 04:25:51;;;;;;;20.40;7.20;;;;;;;7.84;72.32;99757.20;106015;1276;108349;-67
2022/10/05 04:28:48;;;;;;;18.90;7.00;;;;;;;7.85;72.24;99752.42;105910;1275;99228;-68
2022/10/05 04:31:51;;;;;;;19.00;6.30;;;;;;;7.85;72.29;99764.61;105956;1274;99275;-66
2022/10/05 04:34:46;;;;;;;18.90;6.80;;;;;;;7.87;72.39;99784.30;105790;1274;115278;-66
2022/10/05 04:37:52;;;;;;;17.20;6.30;;;;;;;7.87;72.25;99794.17;105992;1274;99320;-66
2022/10/05 04:40:58;;;;;;;18.90;6.60;;;;;;;7.86;72.41;99797.23;105926;1274;107743;-66
2022/10/05 04:43:54;;;;;;;16.70;6.70;;;;;;;7.86;72.29;99794.40;106052;1274;99348;-60
2022/10/05 04:46:48;;;;;;;16.90;6.70;;;;;;;7.86;72.15;99796.34;105944;1274;98406;-66
2022/10/05 04:49:27;;;;;;;17.60;6.50;;;;;;;7.87;72.41;99790.47;105934;1274;112365;-66
2022/10/05 04:51:58;;;;;;;14.00;6.20;;;;;;;7.88;72.40;99787.20;106029;1274;96599;-67
2022/10/05 04:54:48;;;;;;;21.10;6.90;;;;;;;7.90;72.35;99789.94;106056;1274;108324;-66
2022/10/05 04:57:34;;;;;;;15.40;6.30;;;;;;;7.94;72.52;99791.02;106017;1274;99310;-66
2022/10/05 05:00:38;;;;;;;20.20;6.50;;;;;;;7.97;72.40;99777.08;106066;1274;96653;-66
2022/10/05 05:03:40;;;;;;;16.10;6.30;;;;;;;7.99;72.47;99775.39;106023;1274;113342;-69
2022/10/05 05:06:30;;;;;;;19.80;6.60;;;;;;;8.02;72.56;99770.28;106033;1274;99252;-66
2022/10/05 05:09:17;;;;;;;14.90;6.10;;;;;;;8.06;72.60;99771.34;105942;1274;108283;-65
2022/10/05 05:12:03;;;;;;;17.00;6.40;;;;;;;8.08;72.61;99783.23;106116;1274;96613;-67
2022/10/05 05:15:02;;;;;;;18.00;6.60;;;;;;;8.12;72.49;99793.98;106170;1274;99290;-66
2022/10/05 05:18:08;;;;;;;17.90;6.80;;;;;;;8.13;72.56;99794.83;106051;1275;113141;-66
2022/10/05 05:21:09;;;;;;;16.20;6.00;;;;;;;8.13;72.44;99785.09;105986;1275;99310;-67
2022/10/05 05:23:44;;;;;;;16.20;6.20;;;;;;;8.15;72.45;99778.28;105887;1276;108388;-66
2022/10/05 05:26:24;;;;;;;16.50;6.10;;;;;;;8.18;72.62;99776.36;105886;1276;99295;-67
2022/10/05 05:29:18;;;;;;;16.30;6.20;;;;;;;8.21;72.62;99782.21;105893;1276;99329;-68
2022/10/05 05:32:11;;;;;;;;;;;;;;;8.23;72.58;99790.23;105916;1276;113347;-66
2022/10/05 05:35:01;;;;;;;14.70;6.20;;;;;;;8.24;72.76;99791.44;105955;1276;99257;-68
2022/10/05 05:37:46;;;;;;;19.50;6.90;;;;;;;8.26;72.74;99794.49;105914;1274;108390;-67
2022/10/05 05:40:23;;;;;;;17.50;6.50;;;;;;;8.29;72.74;99797.03;105906;1275;99308;-64
2022/10/05 05:43:17;;;;;;;17.70;6.10;;;;;;;8.30;72.68;99790.08;105908;1274;99289;-65
2022/10/05 05:45:59;;;;;;;18.70;6.60;;;;;;;8.33;72.77;99794.34;105961;1276;112287;-65
2022/10/05 05:48:45;;;;;;;19.20;6.60;;;;;;;8.35;72.77;99802.15;105930;1276;98827;-66
2022/10/05 05:51:15;;;;;;;19.70;6.20;;;;;;;8.38;72.79;99808.91;106030;1274;107757;-66
2022/10/05 05:53:49;;;;;;;18.70;5.90;;;;;;;8.40;72.69;99815.55;105978;1274;99356;-66
2022/10/05 05:56:40;;;;;;;15.80;5.70;;;;;;;8.41;72.74;99823.59;105983;1275;99231;-66
2022/10/05 05:59:30;;;;;;;20.20;5.80;;;;;;;8.44;72.67;99818.32;106001;1274;113392;-66
2022/10/05 06:02:11;;;;;;;15.20;5.40;;;;;;;8.47;72.77;99803.14;106146;1274;96650;-67
2022/10/05 06:05:11;;;;;;;16.20;5.70;;;;;;;8.48;72.57;99801.19;106066;1276;107792;-69
2022/10/05 06:07:43;;;;;;;19.20;5.50;;;;;;;8.48;72.83;99802.41;106019;1275;99425;-66
2022/10/05 06:10:52;;;;;;;18.50;5.70;;;;;;;8.49;72.68;99802.00;106006;1274;99215;-67
2022/10/05 06:13:32;;;;;;;15.90;5.70;;;;;;;8.52;72.71;99790.40;105917;1275;113700;-67
2022/10/05 06:16:22;;;;;;;12.10;5.50;;;;;;;8.55;72.68;99796.98;105975;1276;99313;-66
2022/10/05 06:19:05;;;;;;;15.90;5.10;;;;;;;8.53;72.72;99801.63;106038;1274;108296;-66
2022/10/05 06:22:10;;;;;;;16.40;5.80;;;;;;;8.52;72.70;99803.67;105953;1276;97728;-64
2022/10/05 06:25:03;;;;;;;16.60;6.10;;;;;;;8.52;72.70;99797.79;106040;1275;99233;-66
2022/10/05 06:28:00;;;;;;;13.10;5.40;;;;;;;8.54;72.62;99795.79;105972;1274;113384;-65
2022/10/05 06:30:54;;;;;;;16.20;5.60;;;;;;;8.52;72.74;99796.79;106068;1274;99212;-65
2022/10/05 06:33:52;;;;;;;15.70;5.60;;;;;;;8.54;72.78;99794.73;105958;1274;107787;-66
2022/10/05 06:36:29;;;;;;;9.80;4.40;;;;;;;8.58;72.81;99803.14;105926;1274;99998;-67
2022/10/05 06:39:32;;;;;;;11.10;4.40;;;;;;;8.62;72.72;99806.46;106052;1275;99328;-67
2022/10/05 06:42:25;;;;;;;11.80;5.00;;;;;;;8.63;72.82;99807.45;105992;1276;113201;-66
2022/10/05 06:45:17;;;;;;;13.80;5.10;;;;;;;8.67;72.80;99804.12;106123;1274;99249;-67
2022/10/05 06:48:09;;;;;;;10.10;4.40;;;;;;;8.74;72.87;99812.91;106002;1274;108711;-68
2022/10/05 06:50:45;;;;;;;12.00;5.10;;;;;;;8.84;72.85;99816.48;105883;1274;99273;-67
2022/10/05 06:53:18;;;;;;;15.30;4.70;;;;;;;8.93;72.86;99812.29;105958;1274;97668;-66
2022/10/05 06:55:52;;;;;;;12.60;4.40;;;;;;;9.03;72.89;99813.52;106036;1275;113598;-67
2022/10/05 06:58:26;;;;;;;11.10;4.20;;;;;;;9.12;72.87;99816.38;106060;1277;99735;-66
2022/10/05 07:01:14;;;;;;;8.90;4.20;;;;;;;9.25;72.89;99824.33;106066;1275;109362;-67
2022/10/05 07:03:55;;;;;;;11.60;4.30;;;;;;;9.41;72.86;99828.21;105946;1277;99361;-66
2022/10/05 07:06:31;;;;;;;11.60;4.00;;;;;;;9.57;72.93;99833.92;106005;1276;99332;-66
2022/10/05 07:09:02;;;;;;;11.60;3.90;;;;;;;9.68;73.08;99841.05;105935;1274;113651;-67
2022/10/05 07:11:51;;;;;;;12.00;3.70;;;;;;;9.78;73.00;99839.10;106085;1271;99240;-68
2022/10/05 07:14:54;;;;;;;11.50;4.10;;;;;;;9.91;73.01;99835.02;106046;1274;106526;-67
2022/10/05 07:17:47;;;;;;;8.20;3.90;;;;;;;10.03;72.99;99832.35;105952;1275;99230;-67
2022/10/05 07:20:36;;;;;;;13.00;4.00;;;;;;;10.14;73.01;99832.07;105924;1276;99304;-67
2022/10/05 07:23:33;;;;;;;9.80;3.60;;;;;;;10.25;72.92;99829.85;105883;1276;113471;-65
2022/10/05 07:26:19;;;;;;;12.40;4.10;;;;;;;10.35;72.87;99829.47;105952;1276;99248;-65
2022/10/05 07:29:06;;;;;;;10.00;4.00;;;;;;;10.42;72.81;99832.59;106013;1276;108079;-67
2022/10/05 07:31:49;;;;;;;8.70;4.10;;;;;;;10.50;72.68;99828.08;106087;1274;99223;-66
2022/10/05 07:34:28;;;;;;;14.40;4.00;;;;;;;10.57;72.82;99825.47;105996;1274;99230;-65
2022/10/05 07:40:36;;;;;;;12.20;4.60;;;;;;;10.71;72.62;99826.23;105999;1274;97890;-67
2022/10/05 07:43:32;;;;;;;15.10;4.00;;;;;;;10.79;72.72;99826.29;106062;1276;108478;-66
2022/10/05 07:46:23;;;;;;;8.30;3.60;;;;;;;10.87;72.57;99822.06;105941;1274;99246;-66
2022/10/05 07:49:33;;;;;;;12.50;3.90;;;;;;;10.95;72.66;99824.59;105900;1274;99300;-69
2022/10/05 07:52:31;;;;;;;9.80;4.00;;;;;;;11.07;72.58;99828.50;106025;1274;113434;-66
2022/10/05 07:55:13;;;;;;;11.20;4.00;;;;;;;11.15;72.71;99826.35;106244;1274;99227;-67
2022/10/05 07:57:49;;;;;;;11.20;4.60;;;;;;;11.26;72.56;99828.17;106062;1274;107826;-68
2022/10/05 08:00:26;;;;;;;12.50;3.80;;;;;;;11.41;72.75;99828.50;106072;1274;99268;-68
2022/10/05 08:03:21;;;;;;;8.80;4.10;;;;;;;11.54;72.75;99818.58;106104;1274;99187;-72
2022/10/05 08:05:52;;;;;;;9.40;4.20;;;;;;;11.67;72.56;99815.96;106067;1274;113311;-67
2022/10/05 08:08:44;;;;;;;10.80;4.00;;;;;;;11.80;72.61;99817.30;106035;1274;97996;-67
2022/10/05 08:11:26;;;;;;;11.70;4.10;;;;;;;11.93;72.61;99813.89;106045;1274;109778;-67
2022/10/05 08:14:11;;;;;;;9.60;3.90;;;;;;;12.05;72.67;99814.58;106077;1276;99246;-69
2022/10/05 08:16:47;;;;;;;12.40;4.40;;;;;;;12.16;72.68;99815.99;106095;1274;99523;-67
2022/10/05 08:19:48;;;;;;;10.20;4.00;;;;;;;12.26;72.52;99818.33;106146;1274;112834;-68
2022/10/05 08:22:39;;;;;;;9.70;4.20;;;;;;;12.35;72.45;99816.66;106098;1274;96607;-68
2022/10/05 08:25:25;;;;;;;11.10;3.70;;;;;;;12.44;72.41;99808.62;106059;1274;108081;-69
2022/10/05 08:28:19;;;;;;;12.20;4.10;;;;;;;12.59;72.30;99812.75;105922;1275;96731;-68
2022/10/05 08:31:22;;;;;;;11.80;4.30;;;;;;;13.27;71.52;99814.36;105955;1275;99207;-66
2022/10/05 08:34:02;;;;;;;7.70;3.90;;;;;;;14.00;71.25;99820.50;106063;1274;112815;-68
2022/10/05 08:37:01;;;;;;;8.10;3.50;;;;;;;14.39;71.45;99816.84;106030;1275;99275;-68
2022/10/05 08:39:48;;;;;;;9.10;3.40;;;;;;;14.84;71.40;99819.01;106028;1275;108459;-69
2022/10/05 08:42:41;;;;;;;14.60;5.40;;;;;;;15.13;71.65;99814.20;106043;1275;99212;-67
2022/10/05 08:45:37;;;;;;;9.40;3.80;;;;;;;15.44;71.63;99813.53;106092;1275;99362;-69
2022/10/05 08:48:18;;;;;;;12.10;3.50;;;;;;;15.81;71.75;99816.94;105902;1274;113349;-68
2022/10/05 08:51:08;;;;;;;7.70;3.70;;;;;;;16.10;71.60;99822.45;105986;1275;99358;-67
2022/10/05 08:54:07;;;;;;;8.20;3.60;;;;;;;16.37;71.88;99823.94;105952;1276;108337;-67
2022/10/05 08:56:46;;;;;;;6.70;3.20;;;;;;;16.52;71.60;99814.98;105978;1274;99103;-68
2022/10/05 08:59:32;;;;;;;9.10;3.60;;;;;;;16.67;71.55;99814.45;106002;1275;99331;-68
2022/10/05 09:02:36;;;;;;;9.60;3.50;;;;;;;16.89;71.72;99817.16;105997;1274;113421;-69
2022/10/05 09:05:30;;;;;;;9.70;3.70;;;;;;;16.87;71.31;99817.89;105911;1274;98594;-69
2022/10/05 09:08:02;;;;;;;10.10;3.30;;;;;;;16.88;71.35;99818.04;106072;1275;108216;-68
2022/10/05 09:11:02;;;;;;;7.10;3.40;;;;;;;16.96;71.24;99815.87;106041;1274;99219;-67
2022/10/05 09:13:42;;;;;;;7.60;3.00;;;;;;;17.13;71.04;99813.94;106099;1274;99345;-66
2022/10/05 09:16:44;;;;;;;9.80;3.40;;;;;;;17.32;71.09;99816.16;106147;1274;113012;-67
2022/10/05 09:19:37;;;;;;;7.60;3.10;;;;;;;17.50;70.86;99817.44;106093;1275;99233;-66
2022/10/05 09:22:34;;;;;;;11.80;3.20;;;;;;;17.65;70.57;99822.92;106004;1274;108366;-67
2022/10/05 09:25:21;;;;;;;6.70;2.90;;;;;;;17.67;70.41;99826.46;105942;1275;99348;-67
2022/10/05 09:28:06;;;;;;;6.80;2.90;;;;;;;17.67;70.27;99820.52;105816;1276;99372;-69
2022/10/05 09:31:05;;;;;;;6.00;3.20;;;;;;;17.50;69.62;99818.84;105952;1274;112864;-66
2022/10/05 09:34:29;;;;;;;8.90;3.30;;;;;;;17.55;69.87;99816.10;105982;1274;99178;-67
2022/10/05 09:37:22;;;;;;;5.90;2.60;;;;;;;17.61;69.94;99811.79;105565;1282;107836;-69
2022/10/05 09:40:16;;;;;;;11.30;3.00;;;;;;;17.63;69.71;99806.39;106085;1275;97673;-66
2022/10/05 09:43:26;;;;;;;6.40;2.80;;;;;;;17.58;69.47;99807.36;106075;1276;99208;-67
2022/10/05 09:46:22;;;;;;;6.80;2.60;;;;;;;17.59;69.38;99798.02;105892;1274;113379;-67
2022/10/05 09:49:21;;;;;;;9.50;3.20;;;;;;;17.57;69.27;99790.70;106613;1274;99792;-68
2022/10/05 09:52:27;;;;;;;7.40;3.40;;;;;;;17.38;68.72;99807.95;105995;1277;106479;-67
2022/10/05 09:55:38;;;;;;;8.40;2.90;;;;;;;17.22;68.65;99806.67;106057;1277;96745;-67
2022/10/05 09:58:37;;;;;;;5.70;2.70;;;;;;;16.93;68.42;99802.16;106086;1277;99937;-69
2022/10/05 10:01:31;;;;;;;7.50;2.70;;;;;;;16.92;68.28;99813.89;106083;1275;112340;-67
2022/10/05 10:04:06;;;;;;;6.90;2.60;;;;;;;16.98;68.37;99825.59;106174;1274;97699;-68
2022/10/05 10:07:16;;;;;;;5.90;2.80;;;;;;;17.01;68.24;99826.61;105990;1276;108415;-69
2022/10/05 10:09:54;;;;;;;11.40;3.10;;;;;;;17.04;68.14;99812.89;105870;1276;99236;-68
2022/10/05 10:12:40;;;;;;;6.40;2.80;;;;;;;16.87;67.83;99811.83;106092;1274;99205;-67
2022/10/05 10:15:30;;;;;;;7.40;3.10;;;;;;;16.60;67.58;99827.39;106037;1274;113363;-67
2022/10/05 10:18:27;;;;;;;6.50;3.10;;;;;;;16.41;67.58;99826.86;106108;1274;99248;-67
2022/10/05 10:21:19;;;;;;;5.10;2.80;;;;;;;16.28;67.22;99824.89;106033;1275;108551;-67
2022/10/05 10:24:05;;;;;;;5.80;3.00;;;;;;;16.26;67.23;99826.51;105993;1274;99229;-67
2022/10/05 10:26:52;;;;;;;9.50;2.80;;;;;;;16.12;66.87;99827.81;106040;1275;99221;-66
2022/10/05 10:29:39;;;;;;;5.90;3.20;;;;;;;16.02;66.87;99827.59;105931;1275;113315;-67
2022/10/05 10:32:20;;;;;;;7.60;2.80;;;;;;;15.96;66.82;99820.23;105940;1274;99296;-67
2022/10/05 10:35:18;;;;;;;6.70;3.00;;;;;;;15.97;66.88;99818.31;105958;1274;108389;-67
2022/10/05 10:37:51;;;;;;;9.30;3.20;;;;;;;15.94;66.37;99817.49;105937;1274;99371;-68
2022/10/05 10:40:44;;;;;;;4.70;2.70;;;;;;;15.91;66.43;99815.94;106118;1274;99290;-68
2022/10/05 10:43:38;;;;;;;8.10;3.10;;;;;;;15.88;66.19;99811.23;106022;1274;113115;-68
2022/10/05 10:46:15;;;;;;;5.60;2.70;;;;;;;15.87;66.15;99809.48;106071;1274;96624;-66
2022/10/05 10:49:13;;;;;;;5.80;2.60;;;;;;;15.84;66.14;99810.11;105959;1274;108379;-65
2022/10/05 10:51:56;;;;;;;4.60;2.90;;;;;;;15.84;66.06;99814.06;106005;1275;99889;-67
2022/10/05 10:54:58;;;;;;;4.30;2.30;;;;;;;15.86;66.03;99818.52;106113;1274;97771;-66
2022/10/05 10:57:43;;;;;;;5.50;2.60;;;;;;;15.88;65.87;99815.90;106023;1274;114070;-67
2022/10/05 11:00:42;;;;;;;5.50;2.70;;;;;;;15.90;65.70;99810.13;105877;1274;97860;-66
2022/10/05 11:03:37;;;;;;;5.60;2.70;;;;;;;15.89;65.49;99805.94;106059;1275;108405;-69
2022/10/05 11:06:20;;;;;;;7.00;2.70;;;;;;;15.86;65.51;99805.25;106014;1274;99239;-68
2022/10/05 11:08:56;;;;;;;6.40;2.90;;;;;;;15.76;65.39;99807.19;106015;1274;99352;-67
2022/10/05 11:11:37;;;;;;;4.90;2.50;;;;;;;15.71;65.21;99817.21;105929;1274;113558;-69
2022/10/05 11:14:37;;;;;;;5.60;2.60;;;;;;;15.76;65.47;99814.14;106013;1274;99295;-68
2022/10/05 11:17:30;;;;;;;5.90;2.90;;;;;;;15.84;65.27;99809.75;106016;1274;108808;-68
2022/10/05 11:20:29;;;;;;;7.70;2.80;;;;;;;15.90;64.98;99811.78;106052;1274;99330;-67
2022/10/05 11:23:42;;;;;;;6.10;2.90;;;;;;;15.95;65.13;99803.69;106059;1275;96692;-67
2022/10/05 11:26:42;;;;;;;7.40;2.80;;;;;;;15.98;64.86;99797.87;105995;1276;113688;-66
2022/10/05 11:29:28;;;;;;;5.00;2.80;;;;;;;16.00;64.81;99795.18;106018;1277;100138;-66
2022/10/05 11:32:15;;;;;;;7.50;2.90;;;;;;;16.05;64.73;99791.94;106023;1274;108524;-67
2022/10/05 11:35:23;;;;;;;4.70;2.90;;;;;;;16.13;64.81;99787.86;106028;1274;99098;-68
2022/10/05 11:38:22;;;;;;;4.90;2.90;;;;;;;16.17;64.60;99785.41;106008;1275;99190;-67
2022/10/05 11:41:22;;;;;;;6.30;2.90;;;;;;;16.21;64.54;99782.38;106022;1274;113366;-68
2022/10/05 11:44:27;;;;;;;4.70;2.70;;;;;;;16.27;64.65;99787.40;106159;1274;99135;-68
2022/10/05 11:47:28;;;;;;;4.60;2.60;;;;;;;16.30;64.34;99786.14;105966;1275;108502;-67
2022/10/05 11:50:10;;;;;;;6.10;2.80;;;;;;;16.34;64.38;99779.44;106018;1274;99259;-67
2022/10/05 11:52:43;;;;;;;5.90;3.20;;;;;;;16.39;64.44;99779.94;105933;1274;99230;-68
2022/10/05 11:55:15;;;;;;;6.60;3.00;;;;;;;16.41;64.15;99777.10;105907;1275;113336;-68
2022/10/05 11:58:00;;;;;;;6.40;2.60;;;;;;;16.43;64.11;99778.13;105924;1274;98208;-68
2022/10/05 12:00:53;;;;;;;8.00;3.20;;;;;;;16.44;64.29;99776.46;105945;1274;107633;-67
2022/10/05 12:03:37;;;;;;;5.10;2.80;;;;;;;16.36;63.94;99776.04;105733;1275;99297;-66
2022/10/05 12:06:49;;;;;;;6.10;2.40;;;;;;;16.26;63.85;99774.45;105982;1277;99339;-68
2022/10/05 12:12:50;;;;;;;7.20;3.00;;;;;;;16.19;63.70;99774.27;106014;1275;96682;-66
2022/10/05 12:15:34;;;;;;;7.00;3.00;;;;;;;16.20;63.88;99771.65;106019;1274;108694;-65
2022/10/05 12:18:23;;;;;;;6.40;2.60;;;;;;;16.18;63.68;99773.32;106009;1274;99375;-67
2022/10/05 12:20:59;;;;;;;6.40;3.20;;;;;;;16.11;63.50;99764.59;106052;1275;96628;-68
2022/10/05 12:23:36;;;;;;;5.50;2.70;;;;;;;16.14;63.59;99762.20;105967;1274;113413;-68
2022/10/05 12:26:28;;;;;;;6.60;3.20;;;;;;;16.16;63.57;99758.06;106055;1276;99349;-67
2022/10/05 12:29:06;;;;;;;7.20;3.30;;;;;;;16.18;63.46;99761.50;105898;1277;108380;-68
2022/10/05 12:32:03;;;;;;;6.60;2.90;;;;;;;16.23;63.38;99764.78;106066;1274;99422;-67
2022/10/05 12:34:52;;;;;;;6.70;3.00;;;;;;;16.33;63.48;99762.73;106090;1274;99193;-68
2022/10/05 12:37:46;;;;;;;7.30;3.20;;;;;;;16.33;63.29;99750.90;105951;1276;113347;-68
2022/10/05 12:40:46;;;;;;;12.40;3.20;;;;;;;16.32;63.11;99741.13;105991;1274;99234;-68
2022/10/05 12:43:35;;;;;;;7.90;3.40;;;;;;;16.30;62.87;99743.12;105887;1274;108100;-66
2022/10/05 12:46:25;;;;;;;6.40;2.90;;;;;;;16.26;62.79;99742.90;105979;1276;99336;-67
2022/10/05 12:49:15;;;;;;;6.00;3.10;;;;;;;16.31;62.92;99749.88;106050;1274;99323;-67
2022/10/05 12:51:52;;;;;;;8.80;3.20;;;;;;;16.34;62.88;99749.41;106047;1274;113740;-68
2022/10/05 12:54:28;;;;;;;9.40;3.40;;;;;;;16.28;62.81;99748.30;106079;1276;99310;-68
2022/10/05 12:57:06;;;;;;;9.60;3.30;;;;;;;16.18;62.31;99748.55;105947;1275;108434;-68
2022/10/05 12:59:41;;;;;;;8.30;3.40;;;;;;;16.16;62.37;99749.83;105978;1274;96695;-66
2022/10/05 13:02:41;;;;;;;10.90;3.00;;;;;;;16.10;62.18;99745.33;106089;1274;99218;-69
2022/10/05 13:05:09;;;;;;;7.40;3.60;;;;;;;16.12;62.42;99742.31;106068;1274;113400;-68